Time;durP1;ratioP1;P1;durP2;ratioP2;P2;SDS_P1;SDS_P2;PMS_P1;PMS_P2;Temp;Humidity;BMP_temperature;BMP_pressure;BME280_temperature;BME280_humidity;BME280_pressure;Samples;Min_cycle;Max_cycle;Signal;HPM_P1;HPM_P2
2022/10/15 00:01:16;;;;;;;3.20;0.73;;;27.10;51.00;;;;;;5073354;28;20331;-69
2022/10/15 00:03:45;;;;;;;1.40;0.60;;;27.10;54.20;;;;;;5073596;28;20504;-69
2022/10/15 00:06:18;;;;;;;3.10;0.73;;;26.90;44.20;;;;;;5073204;28;20204;-69
2022/10/15 00:08:47;;;;;;;3.00;0.70;;;26.80;46.00;;;;;;5073838;28;20187;-71
2022/10/15 00:11:24;;;;;;;2.43;0.80;;;27.10;44.60;;;;;;5073349;28;20249;-69
2022/10/15 00:13:58;;;;;;;2.73;0.73;;;26.80;42.50;;;;;;5073902;28;20278;-72
2022/10/15 00:16:28;;;;;;;1.47;0.50;;;26.70;43.90;;;;;;5073621;28;20650;-69
2022/10/15 00:18:58;;;;;;;4.03;0.60;;;25.90;44.70;;;;;;5073186;28;20254;-71
2022/10/15 00:21:26;;;;;;;1.43;0.50;;;26.40;48.70;;;;;;5073010;28;20296;-69
2022/10/15 00:23:54;;;;;;;1.87;0.60;;;27.10;51.60;;;;;;5073067;28;20176;-69
2022/10/15 00:26:25;;;;;;;2.40;0.53;;;27.80;52.30;;;;;;5072869;28;20225;-71
2022/10/15 00:28:56;;;;;;;4.40;0.60;;;27.30;43.20;;;;;;5072996;28;20184;-69
2022/10/15 00:31:26;;;;;;;2.67;0.47;;;27.10;43.50;;;;;;5073490;28;20176;-70
2022/10/15 00:33:55;;;;;;;1.50;0.43;;;27.40;44.20;;;;;;5054994;28;20196;-69
2022/10/15 00:36:29;;;;;;;2.60;0.60;;;27.70;45.50;;;;;;5072725;28;20180;-70
2022/10/15 00:38:56;;;;;;;5.00;0.60;;;27.90;41.70;;;;;;5073261;28;20183;-69
2022/10/15 00:41:31;;;;;;;1.67;0.40;;;28.10;35.50;;;;;;5072750;28;20176;-69
2022/10/15 00:44:01;;;;;;;0.43;0.30;;;27.50;32.70;;;;;;5073944;28;20254;-70
2022/10/15 00:46:42;;;;;;;5.47;0.50;;;27.50;35.70;;;;;;5076745;28;20649;-72
2022/10/15 00:49:21;;;;;;;2.10;0.90;;;27.70;39.70;;;;;;5076922;28;20171;-70
2022/10/15 00:52:10;;;;;;;4.23;0.60;;;28.20;36.80;;;;;;5077342;28;20207;-70
2022/10/15 00:54:57;;;;;;;2.53;0.70;;;27.50;36.10;;;;;;5076909;28;20179;-70
2022/10/15 00:57:25;;;;;;;3.67;0.80;;;26.90;33.60;;;;;;5058676;28;20175;-72
2022/10/15 00:59:57;;;;;;;2.57;0.70;;;26.70;36.20;;;;;;5076675;28;20240;-70
2022/10/15 01:02:25;;;;;;;2.17;0.70;;;26.90;35.80;;;;;;5076556;28;20226;-72
2022/10/15 01:04:53;;;;;;;1.80;0.60;;;27.20;37.70;;;;;;5058826;28;20261;-73
2022/10/15 01:07:21;;;;;;;3.57;0.60;;;27.10;36.10;;;;;;5076173;28;20283;-73
2022/10/15 01:09:49;;;;;;;1.73;0.73;;;27.80;31.60;;;;;;5076448;28;20171;-72
2022/10/15 01:12:51;;;;;;;2.63;0.83;;;28.00;34.40;;;;;;5076379;28;20219;-72
2022/10/15 01:15:37;;;;;;;2.47;0.80;;;28.40;36.60;;;;;;5076180;28;20207;-73
2022/10/15 01:18:28;;;;;;;2.80;0.50;;;28.10;33.10;;;;;;5076815;28;20263;-72
2022/10/15 01:21:07;;;;;;;1.13;0.47;;;27.40;31.00;;;;;;5076841;28;20169;-71
2022/10/15 01:24:02;;;;;;;2.90;0.73;;;27.60;32.50;;;;;;5076473;28;20164;-73
2022/10/15 01:26:57;;;;;;;2.03;0.80;;;27.30;32.30;;;;;;5076356;28;20168;-73
2022/10/15 01:29:45;;;;;;;2.60;0.53;;;27.20;32.30;;;;;;5076870;28;20298;-73
2022/10/15 01:32:35;;;;;;;1.50;0.63;;;27.50;30.60;;;;;;5058028;28;20728;-73
2022/10/15 01:35:30;;;;;;;3.47;0.97;;;27.50;32.90;;;;;;5065668;28;20210;-72
2022/10/15 01:38:07;;;;;;;3.77;0.70;;;28.30;30.70;;;;;;5076694;28;20621;-73
2022/10/15 01:41:15;;;;;;;3.17;0.60;;;28.50;30.40;;;;;;5076071;28;20255;-73
2022/10/15 01:43:56;;;;;;;2.10;0.80;;;28.00;30.20;;;;;;5075931;28;20168;-72
2022/10/15 01:46:39;;;;;;;3.50;0.90;;;27.30;31.00;;;;;;5076100;28;20175;-74
2022/10/15 01:49:08;;;;;;;2.93;0.60;;;27.10;31.20;;;;;;5057816;28;20661;-74
2022/10/15 01:51:37;;;;;;;2.60;0.70;;;27.10;34.70;;;;;;5075612;28;20306;-72
2022/10/15 01:54:08;;;;;;;1.97;0.57;;;28.00;34.70;;;;;;5075786;28;20180;-73
2022/10/15 01:56:37;;;;;;;4.60;1.10;;;28.30;29.80;;;;;;5075570;28;20237;-72
2022/10/15 01:59:06;;;;;;;5.00;0.80;;;28.50;30.70;;;;;;5075773;28;20281;-73
2022/10/15 02:01:34;;;;;;;5.73;0.70;;;28.90;32.20;;;;;;5075374;28;20223;-73
2022/10/15 02:04:01;;;;;;;2.87;0.70;;;27.40;29.10;;;;;;5057514;28;20187;-72
2022/10/15 02:06:41;;;;;;;1.23;0.60;;;27.20;32.50;;;;;;5075403;28;20519;-73
2022/10/15 02:09:48;;;;;;;2.23;0.60;;;27.10;32.10;;;;;;5057674;28;20544;-74
2022/10/15 02:12:34;;;;;;;1.90;0.60;;;27.30;30.40;;;;;;5075348;28;20308;-72
2022/10/15 02:15:10;;;;;;;3.53;0.80;;;27.30;30.30;;;;;;5087972;28;20179;-71
2022/10/15 02:18:05;;;;;;;1.23;0.43;;;26.70;30.00;;;;;;5058623;28;20256;-71
2022/10/15 02:20:59;;;;;;;3.40;0.73;;;26.10;33.00;;;;;;5076043;28;20185;-72
2022/10/15 02:23:40;;;;;;;1.23;0.50;;;25.90;31.90;;;;;;5074551;28;20204;-71
2022/10/15 02:26:10;;;;;;;1.53;0.97;;;26.40;31.10;;;;;;5079837;28;20187;-71
2022/10/15 02:28:40;;;;;;;3.57;0.80;;;27.10;34.50;;;;;;5079046;28;20190;-73
2022/10/15 02:31:09;;;;;;;2.37;0.83;;;28.00;33.60;;;;;;5077060;28;20245;-72
2022/10/15 02:33:38;;;;;;;3.90;1.13;;;27.90;30.50;;;;;;5088994;28;20218;-71
2022/10/15 02:36:07;;;;;;;3.43;0.70;;;27.90;27.50;;;;;;5081149;28;20637;-72
2022/10/15 02:38:37;;;;;;;3.70;0.80;;;27.60;27.80;;;;;;5093453;28;20175;-72
2022/10/15 02:41:06;;;;;;;2.73;0.73;;;27.00;29.20;;;;;;5093485;28;20255;-71
2022/10/15 02:43:34;;;;;;;4.77;1.00;;;26.60;29.50;;;;;;5093311;28;20600;-71
2022/10/15 02:46:02;;;;;;;4.50;0.90;;;27.10;32.00;;;;;;5090127;28;20179;-70
2022/10/15 02:48:29;;;;;;;4.43;1.03;;;27.70;32.50;;;;;;5093389;28;20176;-72
2022/10/15 02:50:57;;;;;;;4.57;1.00;;;28.00;33.40;;;;;;5093424;28;20186;-73
2022/10/15 02:53:24;;;;;;;2.43;0.97;;;28.10;34.00;;;;;;5092866;28;20215;-72
2022/10/15 02:55:53;;;;;;;1.10;0.60;;;28.20;31.80;;;;;;5093338;28;20186;-74
2022/10/15 02:58:20;;;;;;;4.53;0.97;;;28.50;31.50;;;;;;5075275;28;20273;-72
2022/10/15 03:00:49;;;;;;;4.57;0.80;;;28.60;35.60;;;;;;5092482;28;20265;-73
2022/10/15 03:03:17;;;;;;;3.47;0.97;;;28.90;28.90;;;;;;5092471;28;20207;-72
2022/10/15 03:05:44;;;;;;;7.17;1.13;;;28.70;28.50;;;;;;5092715;28;20278;-72
2022/10/15 03:08:12;;;;;;;2.93;0.97;;;28.50;29.50;;;;;;5092606;28;20171;-73
2022/10/15 03:10:39;;;;;;;3.80;0.83;;;28.70;28.90;;;;;;5092996;28;20193;-72
2022/10/15 03:13:07;;;;;;;3.43;0.93;;;28.70;28.20;;;;;;5092781;28;20223;-74
2022/10/15 03:15:35;;;;;;;2.63;0.73;;;28.20;27.60;;;;;;5090415;28;20207;-72
2022/10/15 03:18:04;;;;;;;7.93;1.30;;;27.70;31.30;;;;;;5080721;28;20184;-72
2022/10/15 03:20:31;;;;;;;3.13;1.10;;;27.80;33.40;;;;;;5087042;28;20656;-71
2022/10/15 03:22:59;;;;;;;3.80;1.10;;;28.00;29.90;;;;;;5080257;28;20183;-70
2022/10/15 03:25:26;;;;;;;7.30;1.27;;;27.70;28.90;;;;;;5072544;28;20176;-72
2022/10/15 03:27:53;;;;;;;5.33;1.27;;;26.90;31.50;;;;;;5091998;28;20182;-72
2022/10/15 03:30:21;;;;;;;5.57;1.20;;;27.10;32.00;;;;;;5092620;28;20254;-68
2022/10/15 03:32:48;;;;;;;1.77;0.80;;;27.50;36.40;;;;;;5092474;28;20211;-72
2022/10/15 03:35:16;;;;;;;4.27;1.07;;;27.60;33.10;;;;;;5092343;28;20171;-70
2022/10/15 03:37:43;;;;;;;3.90;0.77;;;27.50;29.00;;;;;;5088509;28;20184;-70
2022/10/15 03:40:11;;;;;;;2.00;0.60;;;27.30;27.90;;;;;;5085274;28;20191;-71
2022/10/15 03:42:38;;;;;;;6.73;1.17;;;27.30;34.70;;;;;;5074130;28;20187;-71
2022/10/15 03:45:06;;;;;;;2.67;0.77;;;27.60;32.40;;;;;;5072121;28;20183;-71
2022/10/15 03:47:34;;;;;;;2.97;0.90;;;27.40;30.70;;;;;;5071879;28;20683;-72
2022/10/15 03:50:01;;;;;;;5.60;1.67;;;27.40;30.00;;;;;;5083164;28;20548;-71
2022/10/15 03:52:28;;;;;;;5.07;0.90;;;27.50;32.50;;;;;;5092337;28;20259;-71
2022/10/15 03:54:56;;;;;;;3.10;1.23;;;27.10;31.10;;;;;;5074535;28;20191;-72
2022/10/15 03:57:25;;;;;;;6.10;1.43;;;27.40;30.30;;;;;;5053897;28;20187;-72
2022/10/15 03:59:54;;;;;;;5.23;1.00;;;27.20;31.00;;;;;;5055102;28;20223;-71
2022/10/15 04:02:21;;;;;;;3.37;0.90;;;27.00;32.30;;;;;;5076951;28;20183;-72
2022/10/15 04:04:52;;;;;;;5.30;1.00;;;27.40;32.60;;;;;;5091978;28;20172;-71
2022/10/15 04:07:20;;;;;;;3.40;1.00;;;27.60;29.70;;;;;;5091729;28;20214;-71
2022/10/15 04:09:48;;;;;;;4.03;1.17;;;27.80;31.20;;;;;;5082328;28;20283;-71
2022/10/15 04:12:17;;;;;;;1.90;0.60;;;27.40;28.20;;;;;;5053729;28;20215;-71
2022/10/15 04:14:44;;;;;;;2.20;0.90;;;27.10;32.30;;;;;;5071811;28;20168;-71
2022/10/15 04:17:12;;;;;;;4.67;1.00;;;27.20;31.20;;;;;;5071556;28;20183;-71
2022/10/15 04:19:39;;;;;;;2.27;0.60;;;27.40;29.50;;;;;;5071838;28;20744;-71
2022/10/15 04:22:07;;;;;;;4.33;1.07;;;27.60;32.00;;;;;;5071608;28;20168;-73
2022/10/15 04:24:34;;;;;;;4.17;1.10;;;27.80;30.00;;;;;;5073864;28;20179;-71
2022/10/15 04:27:02;;;;;;;9.50;1.90;;;27.40;39.10;;;;;;5091688;28;20181;-71
2022/10/15 04:29:29;;;;;;;1.40;0.63;;;26.90;43.80;;;;;;5072943;28;20232;-72
2022/10/15 04:31:57;;;;;;;3.60;1.30;;;26.50;46.90;;;;;;5091532;28;20202;-72
2022/10/15 04:34:24;;;;;;;2.10;0.90;;;26.30;50.50;;;;;;5091643;28;20620;-71
2022/10/15 04:36:51;;;;;;;7.20;1.07;;;26.30;54.20;;;;;;5090066;28;20240;-71
2022/10/15 04:39:19;;;;;;;4.07;1.10;;;26.50;59.50;;;;;;5091464;28;20254;-71
2022/10/15 04:41:47;;;;;;;4.80;0.80;;;26.50;57.60;;;;;;5091249;28;20712;-71
2022/10/15 04:44:14;;;;;;;15.37;1.23;;;26.70;52.40;;;;;;5091551;28;20202;-70
2022/10/15 04:46:42;;;;;;;4.60;1.03;;;26.80;53.20;;;;;;5091323;28;20190;-70
2022/10/15 04:49:09;;;;;;;4.77;1.30;;;26.70;55.00;;;;;;5091637;28;20175;-70
2022/10/15 04:51:37;;;;;;;3.40;1.30;;;26.50;51.50;;;;;;5091461;28;20215;-71
2022/10/15 04:54:04;;;;;;;3.13;1.20;;;26.50;54.20;;;;;;5091320;28;20183;-71
2022/10/15 04:56:34;;;;;;;3.33;0.93;;;26.40;57.50;;;;;;5091260;28;20191;-69
2022/10/15 04:59:01;;;;;;;2.13;0.90;;;26.60;55.00;;;;;;5073483;28;20249;-71
2022/10/15 05:01:28;;;;;;;2.77;0.90;;;26.60;54.50;;;;;;5091165;28;20321;-73
2022/10/15 05:03:56;;;;;;;3.17;0.93;;;26.60;51.70;;;;;;5091471;28;20528;-71
2022/10/15 05:06:23;;;;;;;6.70;0.83;;;26.20;52.90;;;;;;5090824;28;20171;-72
2022/10/15 05:08:51;;;;;;;4.40;1.13;;;26.10;55.40;;;;;;5091179;28;20203;-70
2022/10/15 05:11:23;;;;;;;6.13;1.20;;;26.00;56.90;;;;;;5072956;28;20175;-70
2022/10/15 05:13:51;;;;;;;6.57;0.97;;;25.90;55.90;;;;;;5091227;28;20214;-70
2022/10/15 05:16:25;;;;;;;2.53;1.00;;;25.90;55.50;;;;;;5091145;28;20171;-71
2022/10/15 05:18:57;;;;;;;2.63;0.80;;;25.90;63.50;;;;;;5073477;28;20253;-71
2022/10/15 05:21:25;;;;;;;1.33;0.67;;;25.70;56.90;;;;;;5071118;28;20191;-70
2022/10/15 05:23:52;;;;;;;5.30;0.87;;;25.70;60.70;;;;;;5082604;28;20672;-71
2022/10/15 05:26:25;;;;;;;2.50;0.90;;;25.60;60.10;;;;;;5091135;28;20186;-71
2022/10/15 05:28:54;;;;;;;2.97;1.30;;;25.40;60.00;;;;;;5071837;28;20183;-72
2022/10/15 05:31:24;;;;;;;3.27;1.10;;;25.30;64.30;;;;;;5094057;28;20211;-72
2022/10/15 05:33:53;;;;;;;2.07;0.80;;;25.20;67.70;;;;;;5094124;28;20225;-72
2022/10/15 05:36:26;;;;;;;4.77;0.80;;;25.10;69.70;;;;;;5094890;28;20564;-72
2022/10/15 05:38:56;;;;;;;1.83;0.80;;;24.70;67.60;;;;;;5092579;28;20267;-73
2022/10/15 05:41:25;;;;;;;3.13;1.23;;;24.40;73.30;;;;;;5085259;28;20191;-72
2022/10/15 05:43:54;;;;;;;3.43;0.70;;;24.30;75.80;;;;;;5074153;28;20180;-70
2022/10/15 05:46:22;;;;;;;4.43;1.10;;;24.50;82.20;;;;;;5074249;28;20180;-71
2022/10/15 05:48:54;;;;;;;5.13;1.23;;;24.50;82.40;;;;;;5092903;28;20207;-71
2022/10/15 05:51:22;;;;;;;5.07;1.00;;;24.50;82.30;;;;;;5086665;28;20594;-72
2022/10/15 05:53:54;;;;;;;3.97;1.03;;;24.30;85.80;;;;;;5056295;28;20302;-72
2022/10/15 05:56:22;;;;;;;3.90;1.13;;;24.10;89.40;;;;;;5074388;28;20191;-72
2022/10/15 05:58:51;;;;;;;6.23;1.30;;;23.90;92.60;;;;;;5074461;28;20195;-71
2022/10/15 06:01:19;;;;;;;3.53;0.97;;;23.70;95.00;;;;;;5094325;28;20637;-71
2022/10/15 06:03:46;;;;;;;4.07;0.90;;;23.60;99.60;;;;;;5094440;28;20183;-71
2022/10/15 06:06:19;;;;;;;4.37;1.03;;;23.50;99.90;;;;;;5080088;28;20187;-71
2022/10/15 06:08:47;;;;;;;2.03;1.00;;;23.40;99.90;;;;;;5092015;28;20187;-71
2022/10/15 06:11:15;;;;;;;3.87;1.00;;;23.50;99.90;;;;;;5094274;28;20184;-71
2022/10/15 06:13:44;;;;;;;3.13;0.83;;;23.40;99.90;;;;;;5076033;28;20229;-71
2022/10/15 06:16:13;;;;;;;1.43;0.63;;;23.50;99.90;;;;;;5092507;28;20205;-71
2022/10/15 06:18:40;;;;;;;4.37;1.10;;;23.30;99.90;;;;;;5094161;28;20237;-71
2022/10/15 06:21:09;;;;;;;4.70;1.17;;;23.30;99.90;;;;;;5093972;28;20194;-71
2022/10/15 06:23:37;;;;;;;3.87;1.00;;;23.30;99.90;;;;;;5091731;28;20186;-71
2022/10/15 06:26:06;;;;;;;3.00;1.00;;;23.40;99.90;;;;;;5093981;28;20179;-71
2022/10/15 06:28:35;;;;;;;4.50;1.03;;;23.30;99.90;;;;;;5093488;28;20225;-72
2022/10/15 06:31:03;;;;;;;14.47;1.20;;;23.30;99.90;;;;;;5075789;28;20183;-72
2022/10/15 06:33:34;;;;;;;4.17;1.00;;;23.10;99.90;;;;;;5074738;28;20230;-71
2022/10/15 06:36:03;;;;;;;4.67;1.00;;;22.90;99.90;;;;;;5093565;28;20213;-71
2022/10/15 06:38:31;;;;;;;3.67;1.10;;;22.90;99.90;;;;;;5093174;28;20179;-72
2022/10/15 06:40:59;;;;;;;6.37;1.40;;;23.00;99.90;;;;;;5079441;28;20186;-71
2022/10/15 06:43:26;;;;;;;4.53;0.90;;;23.10;99.90;;;;;;5092153;28;20253;-72
2022/10/15 06:45:54;;;;;;;1.07;0.57;;;22.80;99.90;;;;;;5093343;28;20195;-71
2022/10/15 06:48:24;;;;;;;1.60;1.00;;;22.70;99.90;;;;;;5093687;28;20636;-73
2022/10/15 06:50:51;;;;;;;2.37;0.70;;;22.80;99.90;;;;;;5075725;28;20179;-73
2022/10/15 06:53:19;;;;;;;6.03;1.07;;;22.80;99.90;;;;;;5093298;28;20211;-71
2022/10/15 06:55:46;;;;;;;4.73;1.10;;;22.90;99.90;;;;;;5092841;28;20183;-71
2022/10/15 06:58:13;;;;;;;4.87;1.50;;;22.80;99.90;;;;;;5093328;28;20274;-72
2022/10/15 07:00:41;;;;;;;3.23;1.10;;;22.60;99.90;;;;;;5080858;28;20271;-72
2022/10/15 07:03:08;;;;;;;3.50;1.20;;;22.50;99.90;;;;;;5090704;28;20194;-72
2022/10/15 07:05:36;;;;;;;3.57;1.37;;;22.40;99.90;;;;;;5093149;28;20193;-72
2022/10/15 07:08:04;;;;;;;2.63;1.00;;;22.20;99.90;;;;;;5092841;28;20593;-73
2022/10/15 07:10:31;;;;;;;5.53;1.13;;;22.10;99.90;;;;;;5088879;28;20255;-73
2022/10/15 07:13:02;;;;;;;4.83;1.20;;;21.90;99.90;;;;;;5092570;28;20601;-70
2022/10/15 07:15:29;;;;;;;6.47;1.77;;;21.80;99.90;;;;;;5092284;28;20566;-73
2022/10/15 07:18:00;;;;;;;5.90;1.37;;;21.80;99.90;;;;;;5092555;28;20187;-73
2022/10/15 07:20:29;;;;;;;4.70;1.30;;;21.70;99.90;;;;;;5091793;28;20640;-73
2022/10/15 07:23:00;;;;;;;4.30;1.10;;;21.60;99.90;;;;;;5092679;28;20179;-73
2022/10/15 07:25:28;;;;;;;4.40;1.10;;;21.60;99.90;;;;;;5091637;28;20186;-72
2022/10/15 07:27:56;;;;;;;2.87;0.70;;;21.70;99.90;;;;;;5078835;28;20237;-72
2022/10/15 07:30:28;;;;;;;2.53;0.90;;;21.70;99.90;;;;;;5060528;28;20251;-72
2022/10/15 07:32:57;;;;;;;4.70;1.50;;;21.50;99.90;;;;;;5092628;28;20680;-72
2022/10/15 07:35:26;;;;;;;4.07;0.90;;;21.50;99.90;;;;;;5074752;28;20219;-73
2022/10/15 07:37:54;;;;;;;4.67;1.00;;;21.40;99.90;;;;;;5077192;28;20542;-72
2022/10/15 07:40:22;;;;;;;4.23;1.13;;;21.30;99.90;;;;;;5073306;28;20203;-71
2022/10/15 07:42:57;;;;;;;5.10;0.77;;;21.20;99.90;;;;;;5054294;28;20241;-73
2022/10/15 07:45:25;;;;;;;3.27;1.00;;;20.80;99.90;;;;;;5072320;28;20183;-72
2022/10/15 07:47:53;;;;;;;3.97;0.90;;;20.70;99.90;;;;;;5072198;28;20229;-72
2022/10/15 07:50:21;;;;;;;4.60;1.03;;;20.50;99.90;;;;;;5059287;28;20240;-72
2022/10/15 07:52:48;;;;;;;3.53;1.00;;;20.30;99.90;;;;;;5091761;28;20290;-72
2022/10/15 07:55:16;;;;;;;2.70;0.80;;;20.20;99.90;;;;;;5091961;28;20261;-72
2022/10/15 07:57:43;;;;;;;4.17;1.20;;;20.10;99.90;;;;;;5092288;28;20206;-71
2022/10/15 08:00:11;;;;;;;6.03;1.60;;;20.00;99.90;;;;;;5088170;28;20245;-72
2022/10/15 08:02:39;;;;;;;6.23;1.30;;;19.90;99.90;;;;;;5071928;28;20268;-73
2022/10/15 08:05:07;;;;;;;6.30;1.37;;;19.80;99.90;;;;;;5079577;28;20280;-73
2022/10/15 08:07:34;;;;;;;8.07;1.00;;;19.70;99.90;;;;;;5073624;28;20238;-72
2022/10/15 08:10:04;;;;;;;6.33;1.10;;;19.70;99.90;;;;;;5089585;28;20190;-73
2022/10/15 08:12:31;;;;;;;4.47;1.10;;;19.60;99.90;;;;;;5082239;28;20212;-73
2022/10/15 08:14:59;;;;;;;4.80;1.13;;;19.50;99.90;;;;;;5071618;28;20204;-73
2022/10/15 08:17:26;;;;;;;5.03;1.00;;;19.50;99.90;;;;;;5071562;28;20231;-73
2022/10/15 08:19:54;;;;;;;5.00;1.53;;;19.40;99.90;;;;;;5072716;28;20649;-73
2022/10/15 08:22:21;;;;;;;5.03;1.37;;;19.30;99.90;;;;;;5071462;28;20241;-72
2022/10/15 08:24:49;;;;;;;4.17;1.33;;;19.30;99.90;;;;;;5071535;28;20172;-72
2022/10/15 08:27:16;;;;;;;5.17;1.30;;;19.20;99.90;;;;;;5071320;28;20192;-73
2022/10/15 08:29:44;;;;;;;5.40;1.23;;;19.20;99.90;;;;;;5072475;28;20320;-73
2022/10/15 08:32:12;;;;;;;3.10;1.20;;;19.10;99.90;;;;;;5091177;28;20336;-73
2022/10/15 08:34:40;;;;;;;8.30;1.90;;;19.10;99.90;;;;;;5091809;28;20237;-73
2022/10/15 08:37:07;;;;;;;6.13;1.50;;;19.00;99.90;;;;;;5091811;28;20248;-73
2022/10/15 08:39:35;;;;;;;4.33;1.00;;;18.90;99.90;;;;;;5091399;28;20266;-73
2022/10/15 08:42:16;;;;;;;8.07;1.77;;;18.90;99.90;;;;;;5071406;28;20171;-72
2022/10/15 08:44:58;;;;;;;5.43;1.10;;;18.90;99.90;;;;;;5071337;28;20270;-73
2022/10/15 08:47:43;;;;;;;9.40;1.40;;;18.90;99.90;;;;;;5053054;28;20664;-73
2022/10/15 08:50:27;;;;;;;6.87;1.83;;;18.90;99.90;;;;;;5072995;28;20653;-73
2022/10/15 08:52:58;;;;;;;4.07;1.57;;;18.90;99.90;;;;;;5091425;28;20211;-73
2022/10/15 08:55:34;;;;;;;5.07;1.50;;;18.80;99.90;;;;;;5091454;28;20175;-73
2022/10/15 08:58:20;;;;;;;4.77;1.33;;;18.70;99.90;;;;;;5087319;28;20189;-73
2022/10/15 09:01:10;;;;;;;4.40;1.17;;;18.60;99.90;;;;;;5077062;28;20256;-73
2022/10/15 09:04:02;;;;;;;11.53;2.63;;;18.50;99.90;;;;;;5091358;28;20706;-73
2022/10/15 09:06:39;;;;;;;5.10;1.23;;;18.50;99.90;;;;;;5094558;28;20262;-72
2022/10/15 09:09:30;;;;;;;4.20;1.30;;;18.40;99.90;;;;;;5095400;28;20602;-72
2022/10/15 09:12:34;;;;;;;4.17;1.80;;;18.30;99.90;;;;;;5075012;28;20221;-72
2022/10/15 09:15:04;;;;;;;3.57;1.37;;;18.20;99.90;;;;;;5075061;28;20196;-72
2022/10/15 09:17:35;;;;;;;5.13;1.43;;;18.20;99.90;;;;;;5087678;28;20221;-72
2022/10/15 09:20:06;;;;;;;5.40;1.33;;;18.10;99.90;;;;;;5091234;28;20271;-72
2022/10/15 09:22:35;;;;;;;4.10;1.20;;;18.00;99.90;;;;;;5074858;28;20176;-72
2022/10/15 09:25:15;;;;;;;12.53;1.67;;;18.00;99.90;;;;;;5074477;28;20198;-72
2022/10/15 09:27:44;;;;;;;7.00;1.80;;;17.90;99.90;;;;;;5092859;28;20543;-72
2022/10/15 09:30:32;;;;;;;7.03;1.50;;;17.90;99.90;;;;;;5093923;28;20683;-71
2022/10/15 09:33:38;;;;;;;7.13;1.93;;;17.80;99.90;;;;;;5096164;28;20203;-71
2022/10/15 09:36:33;;;;;;;7.43;1.63;;;17.80;99.90;;;;;;5040695;28;20197;-71
2022/10/15 09:39:12;;;;;;;9.30;2.20;;;17.80;99.90;;;;;;5096611;28;20230;-71
2022/10/15 09:42:21;;;;;;;4.33;1.60;;;17.80;99.90;;;;;;5078903;28;20183;-71
2022/10/15 09:44:50;;;;;;;6.60;2.00;;;17.70;99.90;;;;;;5057943;28;20172;-71
2022/10/15 09:47:23;;;;;;;6.60;1.63;;;17.70;99.90;;;;;;5057629;28;20264;-71
2022/10/15 09:49:50;;;;;;;5.33;1.63;;;17.70;99.90;;;;;;5077439;28;20173;-71
2022/10/15 09:52:25;;;;;;;6.27;1.47;;;17.70;99.90;;;;;;5095690;28;20554;-71
2022/10/15 09:55:16;;;;;;;4.73;1.67;;;17.70;99.90;;;;;;5095032;28;20178;-71
2022/10/15 09:57:51;;;;;;;4.63;1.63;;;17.80;99.90;;;;;;5077723;28;20179;-71
2022/10/15 10:00:18;;;;;;;5.10;1.60;;;17.80;99.90;;;;;;5071900;28;20253;-72
2022/10/15 10:03:07;;;;;;;7.87;1.97;;;17.80;99.90;;;;;;5076080;28;20221;-71
2022/10/15 10:05:37;;;;;;;4.10;1.70;;;17.90;99.90;;;;;;5075368;28;20553;-71
2022/10/15 10:08:23;;;;;;;6.50;2.30;;;18.00;99.90;;;;;;5095194;28;20237;-71
2022/10/15 10:11:02;;;;;;;4.37;2.10;;;18.00;99.90;;;;;;5085749;28;20207;-71
2022/10/15 10:13:52;;;;;;;5.67;1.67;;;17.90;99.90;;;;;;5074951;28;20653;-71
2022/10/15 10:16:21;;;;;;;4.90;1.70;;;17.90;99.90;;;;;;5073618;28;20301;-71
2022/10/15 10:19:12;;;;;;;8.57;2.03;;;17.80;99.90;;;;;;5074878;28;20183;-71
2022/10/15 10:21:41;;;;;;;7.17;2.00;;;17.70;99.90;;;;;;5079643;28;20626;-71
2022/10/15 10:24:30;;;;;;;7.63;1.90;;;17.60;99.90;;;;;;5095571;28;20183;-71
2022/10/15 10:26:59;;;;;;;2.93;1.70;;;17.50;99.90;;;;;;5093419;28;20202;-71
2022/10/15 10:29:28;;;;;;;7.20;2.30;;;17.40;99.90;;;;;;5095144;28;20221;-71
2022/10/15 10:31:56;;;;;;;7.33;1.90;;;17.30;99.90;;;;;;5095323;28;20573;-71
2022/10/15 10:34:34;;;;;;;5.93;2.10;;;17.20;99.90;;;;;;5095129;28;20167;-72
2022/10/15 10:37:06;;;;;;;7.67;2.20;;;17.00;99.90;;;;;;5089486;28;20181;-71
2022/10/15 10:39:37;;;;;;;5.17;2.10;;;16.90;99.90;;;;;;5079553;28;20181;-71
2022/10/15 10:42:12;;;;;;;4.03;2.20;;;16.80;99.90;;;;;;5074581;28;20176;-71
2022/10/15 10:44:45;;;;;;;6.03;2.67;;;16.80;99.90;;;;;;5074561;28;20251;-71
2022/10/15 10:47:17;;;;;;;6.07;2.23;;;16.80;99.90;;;;;;5080668;28;20203;-71
2022/10/15 10:49:56;;;;;;;5.80;2.50;;;16.80;99.90;;;;;;5094848;28;20589;-71
2022/10/15 10:52:26;;;;;;;5.07;1.97;;;16.90;99.90;;;;;;5094709;28;20292;-71
2022/10/15 10:55:23;;;;;;;10.67;2.23;;;17.00;99.90;;;;;;5094731;28;20179;-72
2022/10/15 10:57:59;;;;;;;5.40;2.53;;;17.10;99.90;;;;;;5080755;28;20222;-72
2022/10/15 11:00:35;;;;;;;5.37;3.20;;;17.30;99.90;;;;;;5094828;28;20297;-71
2022/10/15 11:03:02;;;;;;;9.90;4.03;;;17.30;99.90;;;;;;5094482;28;20191;-71
2022/10/15 11:05:38;;;;;;;7.97;3.73;;;17.40;99.90;;;;;;5094810;28;20173;-71
2022/10/15 11:08:15;;;;;;;8.63;3.67;;;17.50;99.90;;;;;;5094342;28;20185;-71
2022/10/15 11:10:48;;;;;;;6.77;4.10;;;17.50;99.90;;;;;;5095284;28;20214;-71
2022/10/15 11:13:46;;;;;;;10.93;3.93;;;17.50;99.90;;;;;;5094441;28;20281;-72
2022/10/15 11:16:32;;;;;;;9.83;3.73;;;17.50;99.90;;;;;;5079971;28;21423;-71
2022/10/15 11:19:22;;;;;;;8.73;4.77;;;17.60;99.90;;;;;;5074253;28;20200;-72
2022/10/15 11:22:25;;;;;;;9.83;5.03;;;17.60;99.90;;;;;;5056156;28;20496;-73
2022/10/15 11:25:02;;;;;;;6.80;3.57;;;17.60;99.90;;;;;;5087937;28;20210;-72
2022/10/15 11:27:48;;;;;;;5.23;2.80;;;17.70;99.90;;;;;;5085781;28;20186;-72
2022/10/15 11:30:49;;;;;;;6.97;2.87;;;17.70;99.90;;;;;;5094427;28;20175;-71
2022/10/15 11:33:23;;;;;;;7.77;2.80;;;17.60;99.90;;;;;;5094632;28;20225;-71
2022/10/15 11:36:00;;;;;;;7.57;2.90;;;17.60;99.90;;;;;;5093977;28;20218;-72
2022/10/15 11:39:05;;;;;;;9.07;2.90;;;17.60;99.90;;;;;;5077509;28;20190;-72
2022/10/15 11:41:48;;;;;;;5.27;2.90;;;17.50;99.90;;;;;;5094354;28;20164;-72
2022/10/15 11:44:30;;;;;;;4.77;2.60;;;17.50;99.90;;;;;;5077817;28;20637;-72
2022/10/15 11:47:12;;;;;;;6.07;2.77;;;17.40;99.90;;;;;;5066568;28;20533;-72
2022/10/15 11:50:05;;;;;;;6.00;2.57;;;17.40;99.90;;;;;;5094514;28;20587;-72
2022/10/15 11:52:47;;;;;;;5.70;2.70;;;17.50;99.90;;;;;;5055123;28;20623;-73
2022/10/15 11:55:19;;;;;;;5.93;2.50;;;17.50;99.90;;;;;;5079209;28;20192;-72
2022/10/15 11:57:51;;;;;;;5.17;3.00;;;17.60;99.90;;;;;;5075168;28;20258;-72
2022/10/15 12:00:41;;;;;;;11.67;4.07;;;17.60;99.90;;;;;;5073198;28;20273;-72
2022/10/15 12:03:23;;;;;;;6.50;3.30;;;17.50;99.90;;;;;;5073080;28;20184;-72
2022/10/15 12:06:00;;;;;;;11.23;3.67;;;17.60;99.90;;;;;;5074178;28;20176;-72
2022/10/15 12:08:33;;;;;;;8.50;3.20;;;17.60;99.90;;;;;;5086282;28;20172;-72
2022/10/15 12:11:15;;;;;;;5.30;3.00;;;17.60;99.90;;;;;;5078828;28;20579;-72
2022/10/15 12:13:49;;;;;;;5.17;2.97;;;17.60;99.90;;;;;;5093562;28;20206;-72
2022/10/15 12:16:52;;;;;;;8.03;3.23;;;17.60;99.90;;;;;;5088366;28;20187;-72
2022/10/15 12:19:48;;;;;;;7.43;3.00;;;17.60;99.90;;;;;;5073337;28;20571;-72
2022/10/15 12:22:39;;;;;;;8.73;3.97;;;17.70;99.90;;;;;;5062699;28;20543;-72
2022/10/15 12:25:35;;;;;;;10.43;3.70;;;17.70;99.90;;;;;;5073038;28;20175;-71
2022/10/15 12:28:08;;;;;;;8.17;3.70;;;17.70;99.90;;;;;;5073052;28;20172;-71
2022/10/15 12:30:36;;;;;;;10.97;3.53;;;17.70;99.90;;;;;;5073545;28;20177;-72
2022/10/15 12:33:23;;;;;;;7.70;4.00;;;17.70;99.90;;;;;;5072916;28;20307;-71
2022/10/15 12:36:07;;;;;;;9.53;4.33;;;17.70;99.90;;;;;;5075121;28;20178;-71
2022/10/15 12:38:39;;;;;;;16.23;4.73;;;17.80;99.90;;;;;;5072202;28;20693;-72
2022/10/15 12:41:12;;;;;;;8.27;4.00;;;17.80;99.90;;;;;;5072093;28;20225;-71
2022/10/15 12:43:47;;;;;;;10.10;4.30;;;17.80;99.90;;;;;;5072848;28;20222;-71
2022/10/15 12:46:15;;;;;;;10.50;4.60;;;17.80;99.90;;;;;;5077473;28;20183;-72
2022/10/15 12:48:45;;;;;;;8.13;3.90;;;17.80;99.90;;;;;;5093247;28;20186;-71
2022/10/15 12:51:24;;;;;;;8.63;3.87;;;17.80;99.90;;;;;;5078625;28;20270;-71
2022/10/15 12:53:59;;;;;;;14.13;3.57;;;17.80;99.90;;;;;;5073005;28;20213;-71
2022/10/15 12:56:39;;;;;;;5.60;3.20;;;17.80;99.90;;;;;;5073575;28;20176;-72
2022/10/15 12:59:30;;;;;;;5.30;3.27;;;17.70;99.90;;;;;;5072391;28;20193;-72
2022/10/15 13:01:58;;;;;;;7.83;3.50;;;17.70;99.90;;;;;;5074978;28;20187;-72
2022/10/15 13:04:38;;;;;;;7.37;3.77;;;17.70;99.90;;;;;;5072419;28;20720;-72
2022/10/15 13:07:06;;;;;;;8.53;3.40;;;17.80;99.90;;;;;;5073621;28;20180;-72
2022/10/15 13:09:34;;;;;;;6.73;2.73;;;17.70;99.90;;;;;;5087876;28;20218;-72
2022/10/15 13:12:03;;;;;;;10.73;3.77;;;17.70;99.90;;;;;;5092554;28;20629;-72
2022/10/15 13:14:41;;;;;;;9.33;2.80;;;17.70;99.90;;;;;;5092763;28;20178;-72
2022/10/15 13:17:38;;;;;;;9.70;2.93;;;17.70;99.90;;;;;;5090515;28;20181;-72
2022/10/15 13:20:09;;;;;;;7.73;3.47;;;17.60;99.90;;;;;;5090815;28;20227;-72